sensor_id;sensor_type;location;lat;lon;timestamp;P1;durP1;ratioP1;P2;durP2;ratioP2
51358;SDS011;37448;51.588;7.248;2022-07-29T00:02:22;5.47;;;1.25;;
51358;SDS011;37448;51.588;7.248;2022-07-29T00:04:52;3.95;;;1.55;;
51358;SDS011;37448;51.588;7.248;2022-07-29T00:07:23;7.13;;;1.15;;
51358;SDS011;37448;51.588;7.248;2022-07-29T00:09:54;4.00;;;1.02;;
51358;SDS011;37448;51.588;7.248;2022-07-29T00:12:24;4.07;;;1.10;;
51358;SDS011;37448;51.588;7.248;2022-07-29T00:14:55;3.75;;;1.20;;
51358;SDS011;37448;51.588;7.248;2022-07-29T00:17:26;3.72;;;1.27;;
51358;SDS011;37448;51.588;7.248;2022-07-29T00:19:56;3.67;;;1.10;;
51358;SDS011;37448;51.588;7.248;2022-07-29T00:22:27;3.80;;;1.27;;
51358;SDS011;37448;51.588;7.248;2022-07-29T00:24:57;5.00;;;1.10;;
51358;SDS011;37448;51.588;7.248;2022-07-29T00:27:27;4.80;;;1.30;;
51358;SDS011;37448;51.588;7.248;2022-07-29T00:29:58;5.03;;;1.50;;
51358;SDS011;37448;51.588;7.248;2022-07-29T00:32:28;7.10;;;1.13;;
51358;SDS011;37448;51.588;7.248;2022-07-29T00:34:58;2.97;;;1.00;;
51358;SDS011;37448;51.588;7.248;2022-07-29T00:37:47;5.00;;;1.10;;
51358;SDS011;37448;51.588;7.248;2022-07-29T00:40:18;4.95;;;1.30;;
51358;SDS011;37448;51.588;7.248;2022-07-29T00:42:49;6.95;;;1.27;;
51358;SDS011;37448;51.588;7.248;2022-07-29T00:45:20;4.00;;;1.10;;
51358;SDS011;37448;51.588;7.248;2022-07-29T00:47:54;4.40;;;1.40;;
51358;SDS011;37448;51.588;7.248;2022-07-29T00:50:25;5.40;;;1.40;;
51358;SDS011;37448;51.588;7.248;2022-07-29T00:52:56;7.80;;;1.35;;
51358;SDS011;37448;51.588;7.248;2022-07-29T00:55:26;6.28;;;1.65;;
51358;SDS011;37448;51.588;7.248;2022-07-29T00:57:58;4.75;;;1.10;;
51358;SDS011;37448;51.588;7.248;2022-07-29T01:00:28;6.75;;;1.15;;
51358;SDS011;37448;51.588;7.248;2022-07-29T01:02:59;2.70;;;1.10;;
51358;SDS011;37448;51.588;7.248;2022-07-29T01:05:29;8.15;;;1.30;;
51358;SDS011;37448;51.588;7.248;2022-07-29T01:08:00;5.05;;;1.35;;
51358;SDS011;37448;51.588;7.248;2022-07-29T01:10:32;3.45;;;1.30;;
51358;SDS011;37448;51.588;7.248;2022-07-29T01:13:03;3.08;;;1.05;;
51358;SDS011;37448;51.588;7.248;2022-07-29T01:15:36;5.25;;;1.33;;
51358;SDS011;37448;51.588;7.248;2022-07-29T01:26:20;3.22;;;1.33;;
51358;SDS011;37448;51.588;7.248;2022-07-29T01:29:08;3.70;;;1.23;;
51358;SDS011;37448;51.588;7.248;2022-07-29T01:31:46;4.57;;;1.27;;
51358;SDS011;37448;51.588;7.248;2022-07-29T01:34:22;6.75;;;1.13;;
51358;SDS011;37448;51.588;7.248;2022-07-29T01:37:00;6.50;;;1.67;;
51358;SDS011;37448;51.588;7.248;2022-07-29T01:39:41;6.57;;;1.30;;
51358;SDS011;37448;51.588;7.248;2022-07-29T01:47:33;6.97;;;1.90;;
51358;SDS011;37448;51.588;7.248;2022-07-29T01:50:10;7.82;;;1.48;;
51358;SDS011;37448;51.588;7.248;2022-07-29T01:52:46;3.15;;;1.10;;
51358;SDS011;37448;51.588;7.248;2022-07-29T01:55:24;4.00;;;1.15;;
51358;SDS011;37448;51.588;7.248;2022-07-29T01:57:58;4.65;;;1.25;;
51358;SDS011;37448;51.588;7.248;2022-07-29T02:03:04;5.20;;;1.60;;
51358;SDS011;37448;51.588;7.248;2022-07-29T02:05:39;4.97;;;1.27;;
51358;SDS011;37448;51.588;7.248;2022-07-29T02:08:12;5.18;;;1.30;;
51358;SDS011;37448;51.588;7.248;2022-07-29T02:10:43;8.65;;;1.40;;
51358;SDS011;37448;51.588;7.248;2022-07-29T02:13:15;3.33;;;1.10;;
51358;SDS011;37448;51.588;7.248;2022-07-29T02:15:47;4.30;;;1.35;;
51358;SDS011;37448;51.588;7.248;2022-07-29T02:18:20;3.63;;;1.25;;
51358;SDS011;37448;51.588;7.248;2022-07-29T02:20:54;6.03;;;1.20;;
51358;SDS011;37448;51.588;7.248;2022-07-29T02:23:26;3.08;;;1.25;;
51358;SDS011;37448;51.588;7.248;2022-07-29T02:25:57;2.58;;;1.05;;
51358;SDS011;37448;51.588;7.248;2022-07-29T02:28:29;3.20;;;1.02;;
51358;SDS011;37448;51.588;7.248;2022-07-29T02:31:02;6.57;;;1.73;;
51358;SDS011;37448;51.588;7.248;2022-07-29T02:33:33;4.90;;;1.15;;
51358;SDS011;37448;51.588;7.248;2022-07-29T02:36:04;5.85;;;1.20;;
51358;SDS011;37448;51.588;7.248;2022-07-29T02:38:35;7.05;;;1.98;;
51358;SDS011;37448;51.588;7.248;2022-07-29T02:41:26;3.92;;;1.30;;
51358;SDS011;37448;51.588;7.248;2022-07-29T02:44:08;3.60;;;1.58;;
51358;SDS011;37448;51.588;7.248;2022-07-29T02:52:03;4.47;;;1.30;;
51358;SDS011;37448;51.588;7.248;2022-07-29T02:54:42;4.43;;;1.20;;
51358;SDS011;37448;51.588;7.248;2022-07-29T02:57:20;2.78;;;1.20;;
51358;SDS011;37448;51.588;7.248;2022-07-29T02:59:57;5.50;;;1.50;;
51358;SDS011;37448;51.588;7.248;2022-07-29T03:02:33;6.60;;;1.50;;
51358;SDS011;37448;51.588;7.248;2022-07-29T03:05:06;6.15;;;1.50;;
51358;SDS011;37448;51.588;7.248;2022-07-29T03:07:40;3.53;;;1.30;;
51358;SDS011;37448;51.588;7.248;2022-07-29T03:10:15;5.10;;;1.30;;
51358;SDS011;37448;51.588;7.248;2022-07-29T03:12:46;6.10;;;1.50;;
51358;SDS011;37448;51.588;7.248;2022-07-29T03:15:18;3.75;;;1.35;;
51358;SDS011;37448;51.588;7.248;2022-07-29T03:17:49;6.30;;;1.40;;
51358;SDS011;37448;51.588;7.248;2022-07-29T03:20:20;6.97;;;1.48;;
51358;SDS011;37448;51.588;7.248;2022-07-29T03:22:50;3.35;;;1.33;;
51358;SDS011;37448;51.588;7.248;2022-07-29T03:25:21;5.80;;;1.50;;
51358;SDS011;37448;51.588;7.248;2022-07-29T03:27:51;8.05;;;1.40;;
51358;SDS011;37448;51.588;7.248;2022-07-29T03:30:22;3.92;;;1.35;;
51358;SDS011;37448;51.588;7.248;2022-07-29T03:32:52;4.63;;;1.48;;
51358;SDS011;37448;51.588;7.248;2022-07-29T03:35:23;6.90;;;1.40;;
51358;SDS011;37448;51.588;7.248;2022-07-29T03:37:53;4.68;;;1.52;;
51358;SDS011;37448;51.588;7.248;2022-07-29T03:40:38;4.63;;;1.48;;
51358;SDS011;37448;51.588;7.248;2022-07-29T03:43:32;5.65;;;1.40;;
51358;SDS011;37448;51.588;7.248;2022-07-29T03:46:09;5.13;;;1.83;;
51358;SDS011;37448;51.588;7.248;2022-07-29T03:48:42;6.43;;;1.55;;
51358;SDS011;37448;51.588;7.248;2022-07-29T03:51:15;6.57;;;1.55;;
51358;SDS011;37448;51.588;7.248;2022-07-29T03:53:45;4.82;;;1.40;;
51358;SDS011;37448;51.588;7.248;2022-07-29T03:56:16;5.80;;;1.40;;
51358;SDS011;37448;51.588;7.248;2022-07-29T03:58:50;4.55;;;1.25;;
51358;SDS011;37448;51.588;7.248;2022-07-29T04:01:22;8.60;;;1.63;;
51358;SDS011;37448;51.588;7.248;2022-07-29T04:03:54;3.80;;;1.27;;
51358;SDS011;37448;51.588;7.248;2022-07-29T04:06:25;5.65;;;1.40;;
51358;SDS011;37448;51.588;7.248;2022-07-29T04:08:56;7.72;;;1.45;;
51358;SDS011;37448;51.588;7.248;2022-07-29T04:11:26;4.30;;;1.42;;
51358;SDS011;37448;51.588;7.248;2022-07-29T04:13:56;6.32;;;1.60;;
51358;SDS011;37448;51.588;7.248;2022-07-29T04:16:27;3.38;;;1.38;;
51358;SDS011;37448;51.588;7.248;2022-07-29T04:18:57;7.53;;;1.92;;
51358;SDS011;37448;51.588;7.248;2022-07-29T04:21:28;5.18;;;1.50;;
51358;SDS011;37448;51.588;7.248;2022-07-29T04:23:58;4.35;;;1.20;;
51358;SDS011;37448;51.588;7.248;2022-07-29T04:26:29;4.63;;;1.40;;
51358;SDS011;37448;51.588;7.248;2022-07-29T04:28:59;4.65;;;1.50;;
51358;SDS011;37448;51.588;7.248;2022-07-29T04:31:30;6.40;;;1.45;;
51358;SDS011;37448;51.588;7.248;2022-07-29T04:34:01;5.90;;;1.90;;
51358;SDS011;37448;51.588;7.248;2022-07-29T04:36:31;7.63;;;1.60;;
51358;SDS011;37448;51.588;7.248;2022-07-29T04:39:02;4.43;;;1.40;;
51358;SDS011;37448;51.588;7.248;2022-07-29T04:41:32;4.82;;;1.45;;
51358;SDS011;37448;51.588;7.248;2022-07-29T04:44:03;6.70;;;1.75;;
51358;SDS011;37448;51.588;7.248;2022-07-29T04:46:35;6.53;;;1.48;;
51358;SDS011;37448;51.588;7.248;2022-07-29T04:49:05;5.15;;;1.50;;
51358;SDS011;37448;51.588;7.248;2022-07-29T04:51:36;5.65;;;1.60;;
51358;SDS011;37448;51.588;7.248;2022-07-29T04:54:06;4.97;;;1.42;;
51358;SDS011;37448;51.588;7.248;2022-07-29T04:56:36;5.35;;;1.88;;
51358;SDS011;37448;51.588;7.248;2022-07-29T04:59:07;6.07;;;1.65;;
51358;SDS011;37448;51.588;7.248;2022-07-29T05:01:37;6.30;;;2.17;;
51358;SDS011;37448;51.588;7.248;2022-07-29T05:04:08;7.18;;;2.25;;
51358;SDS011;37448;51.588;7.248;2022-07-29T05:06:38;7.45;;;2.53;;
51358;SDS011;37448;51.588;7.248;2022-07-29T05:09:08;5.32;;;2.00;;
51358;SDS011;37448;51.588;7.248;2022-07-29T05:11:39;4.07;;;2.05;;
51358;SDS011;37448;51.588;7.248;2022-07-29T05:14:09;6.75;;;2.28;;
51358;SDS011;37448;51.588;7.248;2022-07-29T05:16:39;7.65;;;2.20;;
51358;SDS011;37448;51.588;7.248;2022-07-29T05:19:10;6.43;;;2.20;;
51358;SDS011;37448;51.588;7.248;2022-07-29T05:21:40;5.75;;;2.28;;
51358;SDS011;37448;51.588;7.248;2022-07-29T05:24:11;6.90;;;2.97;;
51358;SDS011;37448;51.588;7.248;2022-07-29T05:26:41;10.05;;;2.50;;
51358;SDS011;37448;51.588;7.248;2022-07-29T05:29:12;5.97;;;2.60;;
51358;SDS011;37448;51.588;7.248;2022-07-29T05:31:42;7.63;;;3.15;;
51358;SDS011;37448;51.588;7.248;2022-07-29T05:34:12;7.15;;;2.88;;
51358;SDS011;37448;51.588;7.248;2022-07-29T05:36:43;6.43;;;3.00;;
51358;SDS011;37448;51.588;7.248;2022-07-29T05:39:13;8.45;;;2.50;;
51358;SDS011;37448;51.588;7.248;2022-07-29T05:41:43;9.30;;;2.55;;
51358;SDS011;37448;51.588;7.248;2022-07-29T05:44:14;7.57;;;2.53;;
51358;SDS011;37448;51.588;7.248;2022-07-29T05:46:44;9.23;;;3.00;;
51358;SDS011;37448;51.588;7.248;2022-07-29T05:49:15;7.65;;;2.70;;
51358;SDS011;37448;51.588;7.248;2022-07-29T05:51:45;9.57;;;3.00;;
51358;SDS011;37448;51.588;7.248;2022-07-29T05:54:16;6.43;;;2.88;;
51358;SDS011;37448;51.588;7.248;2022-07-29T05:56:46;12.60;;;2.90;;
51358;SDS011;37448;51.588;7.248;2022-07-29T05:59:16;7.90;;;3.05;;
51358;SDS011;37448;51.588;7.248;2022-07-29T06:01:47;6.75;;;2.72;;
51358;SDS011;37448;51.588;7.248;2022-07-29T06:04:17;8.85;;;2.42;;
51358;SDS011;37448;51.588;7.248;2022-07-29T06:06:48;6.32;;;2.80;;
51358;SDS011;37448;51.588;7.248;2022-07-29T06:09:19;10.52;;;3.50;;
51358;SDS011;37448;51.588;7.248;2022-07-29T06:11:49;8.35;;;3.20;;
51358;SDS011;37448;51.588;7.248;2022-07-29T06:14:19;9.68;;;3.05;;
51358;SDS011;37448;51.588;7.248;2022-07-29T06:16:50;6.95;;;2.97;;
51358;SDS011;37448;51.588;7.248;2022-07-29T06:19:20;9.18;;;3.10;;
51358;SDS011;37448;51.588;7.248;2022-07-29T06:21:51;9.68;;;3.00;;
51358;SDS011;37448;51.588;7.248;2022-07-29T06:24:21;8.38;;;3.15;;
51358;SDS011;37448;51.588;7.248;2022-07-29T06:26:51;8.40;;;2.70;;
51358;SDS011;37448;51.588;7.248;2022-07-29T06:29:22;6.85;;;2.70;;
51358;SDS011;37448;51.588;7.248;2022-07-29T06:31:53;10.35;;;2.92;;
51358;SDS011;37448;51.588;7.248;2022-07-29T06:34:23;9.52;;;2.63;;
51358;SDS011;37448;51.588;7.248;2022-07-29T06:36:53;7.78;;;3.08;;
51358;SDS011;37448;51.588;7.248;2022-07-29T06:39:24;8.43;;;3.08;;
51358;SDS011;37448;51.588;7.248;2022-07-29T06:41:54;10.98;;;3.00;;
51358;SDS011;37448;51.588;7.248;2022-07-29T06:44:25;5.10;;;2.53;;
51358;SDS011;37448;51.588;7.248;2022-07-29T06:46:55;5.63;;;2.80;;
51358;SDS011;37448;51.588;7.248;2022-07-29T06:49:26;6.07;;;2.78;;
51358;SDS011;37448;51.588;7.248;2022-07-29T06:51:57;7.22;;;2.30;;
51358;SDS011;37448;51.588;7.248;2022-07-29T06:54:27;5.63;;;2.20;;
51358;SDS011;37448;51.588;7.248;2022-07-29T06:56:58;5.78;;;2.42;;
51358;SDS011;37448;51.588;7.248;2022-07-29T06:59:29;7.07;;;2.20;;
51358;SDS011;37448;51.588;7.248;2022-07-29T07:01:59;7.97;;;2.42;;
51358;SDS011;37448;51.588;7.248;2022-07-29T07:04:29;5.20;;;2.85;;
51358;SDS011;37448;51.588;7.248;2022-07-29T07:07:00;7.78;;;2.47;;
51358;SDS011;37448;51.588;7.248;2022-07-29T07:09:30;7.53;;;2.60;;
51358;SDS011;37448;51.588;7.248;2022-07-29T07:12:01;6.80;;;2.30;;
51358;SDS011;37448;51.588;7.248;2022-07-29T07:14:31;5.30;;;2.25;;
51358;SDS011;37448;51.588;7.248;2022-07-29T07:17:01;7.25;;;2.33;;
51358;SDS011;37448;51.588;7.248;2022-07-29T07:19:33;7.10;;;2.47;;
51358;SDS011;37448;51.588;7.248;2022-07-29T07:22:04;6.43;;;2.20;;
51358;SDS011;37448;51.588;7.248;2022-07-29T07:24:34;6.47;;;2.60;;
51358;SDS011;37448;51.588;7.248;2022-07-29T07:27:04;5.88;;;2.70;;
51358;SDS011;37448;51.588;7.248;2022-07-29T07:29:35;8.63;;;2.47;;
51358;SDS011;37448;51.588;7.248;2022-07-29T07:32:05;6.18;;;2.42;;
51358;SDS011;37448;51.588;7.248;2022-07-29T07:34:35;4.88;;;2.17;;
51358;SDS011;37448;51.588;7.248;2022-07-29T07:37:07;9.18;;;2.58;;
51358;SDS011;37448;51.588;7.248;2022-07-29T07:39:38;6.90;;;2.65;;
51358;SDS011;37448;51.588;7.248;2022-07-29T07:42:08;7.28;;;2.50;;
51358;SDS011;37448;51.588;7.248;2022-07-29T07:44:41;6.93;;;2.35;;
51358;SDS011;37448;51.588;7.248;2022-07-29T07:47:12;7.00;;;2.28;;
51358;SDS011;37448;51.588;7.248;2022-07-29T07:49:42;7.25;;;2.50;;
51358;SDS011;37448;51.588;7.248;2022-07-29T07:52:13;4.93;;;2.38;;
51358;SDS011;37448;51.588;7.248;2022-07-29T07:54:44;7.07;;;2.40;;
51358;SDS011;37448;51.588;7.248;2022-07-29T07:57:14;7.95;;;2.65;;
51358;SDS011;37448;51.588;7.248;2022-07-29T07:59:45;6.53;;;2.20;;
51358;SDS011;37448;51.588;7.248;2022-07-29T08:02:15;9.48;;;2.60;;
51358;SDS011;37448;51.588;7.248;2022-07-29T08:04:46;7.95;;;2.55;;
51358;SDS011;37448;51.588;7.248;2022-07-29T08:07:16;6.65;;;2.47;;
51358;SDS011;37448;51.588;7.248;2022-07-29T08:09:46;5.38;;;2.55;;
51358;SDS011;37448;51.588;7.248;2022-07-29T08:12:17;7.53;;;2.60;;
51358;SDS011;37448;51.588;7.248;2022-07-29T08:14:47;8.68;;;2.83;;
51358;SDS011;37448;51.588;7.248;2022-07-29T08:17:17;5.95;;;2.60;;
51358;SDS011;37448;51.588;7.248;2022-07-29T08:19:48;7.25;;;3.00;;
51358;SDS011;37448;51.588;7.248;2022-07-29T08:22:19;7.78;;;2.67;;
51358;SDS011;37448;51.588;7.248;2022-07-29T08:24:50;5.38;;;2.38;;
51358;SDS011;37448;51.588;7.248;2022-07-29T08:27:25;7.07;;;2.60;;
51358;SDS011;37448;51.588;7.248;2022-07-29T08:29:56;8.82;;;2.72;;
51358;SDS011;37448;51.588;7.248;2022-07-29T08:32:27;7.53;;;2.60;;
51358;SDS011;37448;51.588;7.248;2022-07-29T08:34:58;7.93;;;2.72;;
51358;SDS011;37448;51.588;7.248;2022-07-29T08:37:28;7.35;;;2.72;;
51358;SDS011;37448;51.588;7.248;2022-07-29T08:39:59;5.70;;;2.63;;
51358;SDS011;37448;51.588;7.248;2022-07-29T08:42:29;9.20;;;3.15;;
51358;SDS011;37448;51.588;7.248;2022-07-29T08:45:00;8.63;;;2.97;;
51358;SDS011;37448;51.588;7.248;2022-07-29T08:47:31;6.15;;;2.60;;
51358;SDS011;37448;51.588;7.248;2022-07-29T08:50:03;8.10;;;3.10;;
51358;SDS011;37448;51.588;7.248;2022-07-29T08:52:35;13.95;;;3.22;;
51358;SDS011;37448;51.588;7.248;2022-07-29T08:55:07;7.15;;;3.28;;
51358;SDS011;37448;51.588;7.248;2022-07-29T08:57:38;8.18;;;3.22;;
51358;SDS011;37448;51.588;7.248;2022-07-29T09:00:10;11.10;;;3.38;;
51358;SDS011;37448;51.588;7.248;2022-07-29T09:02:41;8.38;;;3.13;;
51358;SDS011;37448;51.588;7.248;2022-07-29T09:05:15;9.02;;;3.40;;
51358;SDS011;37448;51.588;7.248;2022-07-29T09:07:45;10.02;;;3.50;;
51358;SDS011;37448;51.588;7.248;2022-07-29T09:10:17;11.20;;;3.42;;
51358;SDS011;37448;51.588;7.248;2022-07-29T09:12:48;9.23;;;3.00;;
51358;SDS011;37448;51.588;7.248;2022-07-29T09:15:18;7.72;;;3.20;;
51358;SDS011;37448;51.588;7.248;2022-07-29T09:17:49;7.65;;;3.40;;
51358;SDS011;37448;51.588;7.248;2022-07-29T09:20:20;7.72;;;3.30;;
51358;SDS011;37448;51.588;7.248;2022-07-29T09:22:54;6.72;;;2.83;;
51358;SDS011;37448;51.588;7.248;2022-07-29T09:25:38;7.28;;;3.20;;
51358;SDS011;37448;51.588;7.248;2022-07-29T09:28:11;9.15;;;3.00;;
51358;SDS011;37448;51.588;7.248;2022-07-29T09:30:56;5.70;;;2.80;;
51358;SDS011;37448;51.588;7.248;2022-07-29T09:33:32;5.80;;;2.88;;
51358;SDS011;37448;51.588;7.248;2022-07-29T09:36:09;6.10;;;3.00;;
51358;SDS011;37448;51.588;7.248;2022-07-29T09:38:39;9.88;;;3.58;;
51358;SDS011;37448;51.588;7.248;2022-07-29T09:41:10;5.60;;;2.85;;
51358;SDS011;37448;51.588;7.248;2022-07-29T09:43:40;6.40;;;2.60;;
51358;SDS011;37448;51.588;7.248;2022-07-29T09:46:23;7.90;;;2.70;;
51358;SDS011;37448;51.588;7.248;2022-07-29T09:49:10;8.70;;;3.08;;
51358;SDS011;37448;51.588;7.248;2022-07-29T09:51:42;5.03;;;2.80;;
51358;SDS011;37448;51.588;7.248;2022-07-29T09:54:22;7.47;;;2.75;;
51358;SDS011;37448;51.588;7.248;2022-07-29T09:56:54;7.47;;;2.92;;
51358;SDS011;37448;51.588;7.248;2022-07-29T09:59:25;7.45;;;2.63;;
51358;SDS011;37448;51.588;7.248;2022-07-29T10:01:56;8.10;;;3.20;;
51358;SDS011;37448;51.588;7.248;2022-07-29T10:04:37;8.02;;;2.80;;
51358;SDS011;37448;51.588;7.248;2022-07-29T10:07:09;5.68;;;2.50;;
51358;SDS011;37448;51.588;7.248;2022-07-29T10:09:39;10.55;;;3.17;;
51358;SDS011;37448;51.588;7.248;2022-07-29T10:12:22;6.13;;;2.78;;
51358;SDS011;37448;51.588;7.248;2022-07-29T10:14:53;9.05;;;3.20;;
51358;SDS011;37448;51.588;7.248;2022-07-29T10:17:24;6.93;;;2.80;;
51358;SDS011;37448;51.588;7.248;2022-07-29T10:19:55;9.95;;;3.35;;
51358;SDS011;37448;51.588;7.248;2022-07-29T10:22:26;7.22;;;3.08;;
51358;SDS011;37448;51.588;7.248;2022-07-29T10:24:56;10.80;;;3.30;;
51358;SDS011;37448;51.588;7.248;2022-07-29T10:27:26;10.00;;;2.75;;
51358;SDS011;37448;51.588;7.248;2022-07-29T10:29:57;7.50;;;3.15;;
51358;SDS011;37448;51.588;7.248;2022-07-29T10:32:45;7.72;;;2.70;;
51358;SDS011;37448;51.588;7.248;2022-07-29T10:38:40;6.55;;;2.80;;
51358;SDS011;37448;51.588;7.248;2022-07-29T10:41:29;9.52;;;2.67;;
51358;SDS011;37448;51.588;7.248;2022-07-29T10:44:09;5.35;;;2.40;;
51358;SDS011;37448;51.588;7.248;2022-07-29T10:46:44;7.85;;;2.88;;
51358;SDS011;37448;51.588;7.248;2022-07-29T10:49:16;9.00;;;2.70;;
51358;SDS011;37448;51.588;7.248;2022-07-29T10:51:55;8.88;;;3.10;;
51358;SDS011;37448;51.588;7.248;2022-07-29T10:57:19;6.80;;;2.42;;
51358;SDS011;37448;51.588;7.248;2022-07-29T11:05:07;9.80;;;2.95;;
51358;SDS011;37448;51.588;7.248;2022-07-29T11:08:16;6.15;;;2.55;;
51358;SDS011;37448;51.588;7.248;2022-07-29T11:10:48;10.05;;;2.42;;
51358;SDS011;37448;51.588;7.248;2022-07-29T11:16:18;7.80;;;2.83;;
51358;SDS011;37448;51.588;7.248;2022-07-29T11:21:41;9.48;;;3.05;;
51358;SDS011;37448;51.588;7.248;2022-07-29T11:24:13;8.27;;;2.53;;
51358;SDS011;37448;51.588;7.248;2022-07-29T11:26:45;7.55;;;3.30;;
51358;SDS011;37448;51.588;7.248;2022-07-29T11:29:19;10.23;;;2.90;;
51358;SDS011;37448;51.588;7.248;2022-07-29T11:31:53;11.07;;;3.63;;
51358;SDS011;37448;51.588;7.248;2022-07-29T11:34:38;9.30;;;3.25;;
51358;SDS011;37448;51.588;7.248;2022-07-29T11:40:25;7.32;;;3.15;;
51358;SDS011;37448;51.588;7.248;2022-07-29T11:42:39;8.25;;;2.97;;
51358;SDS011;37448;51.588;7.248;2022-07-29T11:45:14;7.13;;;3.03;;
51358;SDS011;37448;51.588;7.248;2022-07-29T11:47:51;6.55;;;2.80;;
51358;SDS011;37448;51.588;7.248;2022-07-29T11:50:32;6.97;;;3.00;;
51358;SDS011;37448;51.588;7.248;2022-07-29T11:53:11;7.47;;;2.90;;
51358;SDS011;37448;51.588;7.248;2022-07-29T11:55:43;7.47;;;3.00;;
51358;SDS011;37448;51.588;7.248;2022-07-29T11:58:13;10.77;;;2.97;;
51358;SDS011;37448;51.588;7.248;2022-07-29T12:00:45;6.63;;;2.53;;
51358;SDS011;37448;51.588;7.248;2022-07-29T12:03:27;8.80;;;2.83;;
51358;SDS011;37448;51.588;7.248;2022-07-29T12:05:58;9.27;;;2.92;;
51358;SDS011;37448;51.588;7.248;2022-07-29T12:08:29;6.85;;;2.78;;
51358;SDS011;37448;51.588;7.248;2022-07-29T12:11:00;7.53;;;2.70;;
51358;SDS011;37448;51.588;7.248;2022-07-29T12:13:30;8.75;;;2.65;;
51358;SDS011;37448;51.588;7.248;2022-07-29T12:16:08;6.95;;;2.70;;
51358;SDS011;37448;51.588;7.248;2022-07-29T12:18:39;6.47;;;2.83;;
51358;SDS011;37448;51.588;7.248;2022-07-29T12:21:09;7.25;;;2.53;;
51358;SDS011;37448;51.588;7.248;2022-07-29T12:23:39;6.88;;;3.10;;
51358;SDS011;37448;51.588;7.248;2022-07-29T12:26:23;5.72;;;2.50;;
51358;SDS011;37448;51.588;7.248;2022-07-29T12:28:53;7.10;;;2.80;;
51358;SDS011;37448;51.588;7.248;2022-07-29T12:31:23;8.85;;;2.83;;
51358;SDS011;37448;51.588;7.248;2022-07-29T12:33:54;9.90;;;2.70;;
51358;SDS011;37448;51.588;7.248;2022-07-29T12:36:24;7.82;;;2.35;;
51358;SDS011;37448;51.588;7.248;2022-07-29T12:38:55;6.38;;;2.50;;
51358;SDS011;37448;51.588;7.248;2022-07-29T12:41:27;7.68;;;2.50;;
51358;SDS011;37448;51.588;7.248;2022-07-29T12:43:58;8.93;;;2.60;;
51358;SDS011;37448;51.588;7.248;2022-07-29T12:46:29;5.03;;;2.47;;
51358;SDS011;37448;51.588;7.248;2022-07-29T12:48:59;8.05;;;2.58;;
51358;SDS011;37448;51.588;7.248;2022-07-29T12:56:40;7.10;;;2.38;;
51358;SDS011;37448;51.588;7.248;2022-07-29T12:59:16;8.57;;;2.77;;
51358;SDS011;37448;51.588;7.248;2022-07-29T13:01:50;9.40;;;2.47;;
51358;SDS011;37448;51.588;7.248;2022-07-29T13:04:25;7.13;;;2.35;;
51358;SDS011;37448;51.588;7.248;2022-07-29T13:07:03;8.70;;;2.50;;
51358;SDS011;37448;51.588;7.248;2022-07-29T13:09:41;8.30;;;3.00;;
51358;SDS011;37448;51.588;7.248;2022-07-29T13:12:13;5.55;;;2.28;;
51358;SDS011;37448;51.588;7.248;2022-07-29T13:14:45;6.85;;;2.20;;
51358;SDS011;37448;51.588;7.248;2022-07-29T13:17:18;7.15;;;2.47;;
51358;SDS011;37448;51.588;7.248;2022-07-29T13:19:51;4.30;;;2.00;;
51358;SDS011;37448;51.588;7.248;2022-07-29T13:22:23;6.53;;;2.42;;
51358;SDS011;37448;51.588;7.248;2022-07-29T13:24:55;5.85;;;2.13;;
51358;SDS011;37448;51.588;7.248;2022-07-29T13:27:28;5.95;;;2.17;;
51358;SDS011;37448;51.588;7.248;2022-07-29T13:30:00;5.13;;;2.15;;
51358;SDS011;37448;51.588;7.248;2022-07-29T13:32:32;8.05;;;2.78;;
51358;SDS011;37448;51.588;7.248;2022-07-29T13:35:05;6.75;;;2.45;;
51358;SDS011;37448;51.588;7.248;2022-07-29T13:37:37;5.93;;;2.40;;
51358;SDS011;37448;51.588;7.248;2022-07-29T13:40:10;7.47;;;2.63;;
51358;SDS011;37448;51.588;7.248;2022-07-29T13:42:41;7.65;;;2.65;;
51358;SDS011;37448;51.588;7.248;2022-07-29T13:45:12;7.95;;;2.70;;
51358;SDS011;37448;51.588;7.248;2022-07-29T13:47:43;7.68;;;2.30;;
51358;SDS011;37448;51.588;7.248;2022-07-29T13:50:13;4.82;;;2.22;;
51358;SDS011;37448;51.588;7.248;2022-07-29T13:52:43;6.57;;;2.50;;
51358;SDS011;37448;51.588;7.248;2022-07-29T13:55:14;7.40;;;2.10;;
51358;SDS011;37448;51.588;7.248;2022-07-29T13:57:44;9.68;;;2.40;;
51358;SDS011;37448;51.588;7.248;2022-07-29T14:00:15;8.38;;;2.33;;
51358;SDS011;37448;51.588;7.248;2022-07-29T14:02:46;6.25;;;2.28;;
51358;SDS011;37448;51.588;7.248;2022-07-29T14:05:16;12.95;;;3.13;;
51358;SDS011;37448;51.588;7.248;2022-07-29T14:07:46;8.07;;;2.28;;
51358;SDS011;37448;51.588;7.248;2022-07-29T14:10:17;6.88;;;2.30;;
51358;SDS011;37448;51.588;7.248;2022-07-29T14:12:47;13.00;;;2.75;;
51358;SDS011;37448;51.588;7.248;2022-07-29T14:15:17;8.15;;;2.40;;
51358;SDS011;37448;51.588;7.248;2022-07-29T14:17:48;9.18;;;2.60;;
51358;SDS011;37448;51.588;7.248;2022-07-29T14:20:18;5.55;;;1.92;;
51358;SDS011;37448;51.588;7.248;2022-07-29T14:22:49;8.48;;;2.50;;
51358;SDS011;37448;51.588;7.248;2022-07-29T14:25:19;6.03;;;2.40;;
51358;SDS011;37448;51.588;7.248;2022-07-29T14:27:49;5.07;;;1.80;;
51358;SDS011;37448;51.588;7.248;2022-07-29T14:30:20;8.20;;;2.30;;
51358;SDS011;37448;51.588;7.248;2022-07-29T14:32:50;5.63;;;2.05;;
51358;SDS011;37448;51.588;7.248;2022-07-29T14:35:21;9.38;;;2.30;;
51358;SDS011;37448;51.588;7.248;2022-07-29T14:37:51;6.38;;;2.13;;
51358;SDS011;37448;51.588;7.248;2022-07-29T14:40:21;6.57;;;2.05;;
51358;SDS011;37448;51.588;7.248;2022-07-29T14:42:52;6.25;;;2.20;;
51358;SDS011;37448;51.588;7.248;2022-07-29T14:45:22;6.15;;;1.92;;
51358;SDS011;37448;51.588;7.248;2022-07-29T14:47:52;6.00;;;2.25;;
51358;SDS011;37448;51.588;7.248;2022-07-29T14:50:23;7.75;;;2.53;;
51358;SDS011;37448;51.588;7.248;2022-07-29T14:52:53;6.32;;;2.20;;
51358;SDS011;37448;51.588;7.248;2022-07-29T14:55:24;7.45;;;2.00;;
51358;SDS011;37448;51.588;7.248;2022-07-29T14:57:54;7.47;;;2.22;;
51358;SDS011;37448;51.588;7.248;2022-07-29T15:00:25;7.38;;;2.00;;
51358;SDS011;37448;51.588;7.248;2022-07-29T15:02:55;5.85;;;2.05;;
51358;SDS011;37448;51.588;7.248;2022-07-29T15:05:26;6.15;;;2.05;;
51358;SDS011;37448;51.588;7.248;2022-07-29T15:07:57;7.43;;;2.53;;
51358;SDS011;37448;51.588;7.248;2022-07-29T15:10:28;6.33;;;2.23;;
51358;SDS011;37448;51.588;7.248;2022-07-29T15:12:59;7.35;;;2.10;;
51358;SDS011;37448;51.588;7.248;2022-07-29T15:15:29;6.80;;;2.13;;
51358;SDS011;37448;51.588;7.248;2022-07-29T15:18:00;7.75;;;2.20;;
51358;SDS011;37448;51.588;7.248;2022-07-29T15:20:30;6.05;;;2.20;;
51358;SDS011;37448;51.588;7.248;2022-07-29T15:23:00;9.73;;;2.67;;
51358;SDS011;37448;51.588;7.248;2022-07-29T15:25:31;5.72;;;1.73;;
51358;SDS011;37448;51.588;7.248;2022-07-29T15:28:02;5.13;;;2.37;;
51358;SDS011;37448;51.588;7.248;2022-07-29T15:30:36;4.85;;;2.38;;
51358;SDS011;37448;51.588;7.248;2022-07-29T15:33:10;7.90;;;2.55;;
51358;SDS011;37448;51.588;7.248;2022-07-29T15:35:41;6.80;;;2.88;;
51358;SDS011;37448;51.588;7.248;2022-07-29T15:38:11;9.13;;;2.50;;
51358;SDS011;37448;51.588;7.248;2022-07-29T15:40:41;5.07;;;2.30;;
51358;SDS011;37448;51.588;7.248;2022-07-29T15:43:13;6.55;;;3.25;;
51358;SDS011;37448;51.588;7.248;2022-07-29T15:45:43;10.52;;;2.30;;
51358;SDS011;37448;51.588;7.248;2022-07-29T15:48:36;9.82;;;2.92;;
51358;SDS011;37448;51.588;7.248;2022-07-29T15:51:08;7.30;;;2.00;;
51358;SDS011;37448;51.588;7.248;2022-07-29T15:53:38;7.85;;;2.47;;
51358;SDS011;37448;51.588;7.248;2022-07-29T15:56:08;7.55;;;2.20;;
51358;SDS011;37448;51.588;7.248;2022-07-29T15:58:39;8.05;;;2.20;;
51358;SDS011;37448;51.588;7.248;2022-07-29T16:01:09;5.85;;;2.20;;
51358;SDS011;37448;51.588;7.248;2022-07-29T16:03:40;7.55;;;2.13;;
51358;SDS011;37448;51.588;7.248;2022-07-29T16:06:10;7.47;;;2.42;;